This is the latest recevied weather packets stored in our database for station/object LRCT. If no packets are shown the sender has not sent any weather packets the latest 10 day(s).
| Time | Temp. | Humidity | Pressure | Rain* | Wind** | Luminosity | Snow |
|---|---|---|---|---|---|---|---|
| 1778163537 | 20° C | 60% | 1014 hPa | - | - | - | - |
| 1778162637 | 20° C | 60% | 1014 hPa | - | - | - | - |
| 1778161737 | 22.78° C | 44% | 1013 hPa | - | - | - | - |
| 1778160837 | 22.78° C | 44% | 1013 hPa | - | - | - | - |
| 1778159933 | 22.78° C | 44% | 1013 hPa | - | - | - | - |
| 1778159036 | 22.78° C | 44% | 1013 hPa | - | - | - | - |
| 1778158134 | 25° C | 34% | 1014 hPa | - | - | - | - |
| 1778157275 | 25° C | 34% | 1014 hPa | - | - | - | - |
| 1778156337 | 25° C | 34% | 1014 hPa | - | - | - | - |
| 1778155437 | 25° C | 34% | 1014 hPa | - | - | - | - |
| 1778154537 | 23.89° C | 36% | 1014 hPa | - | - | - | - |
| 1778152737 | 23.89° C | 36% | 1014 hPa | - | - | - | - |
| 1778150936 | 22.78° C | 47% | 1015 hPa | - | - | - | - |
| 1778150037 | 22.78° C | 47% | 1015 hPa | - | - | - | - |
| 1778149136 | 22.78° C | 47% | 1015 hPa | - | - | - | - |
| 1778148237 | 22.78° C | 47% | 1015 hPa | - | - | - | - |
| 1778143737 | 20° C | 53% | 1015 hPa | - | - | - | - |
| 1778142837 | 20° C | 53% | 1015 hPa | - | - | - | - |
| 1778141937 | 20° C | 53% | 1015 hPa | - | - | - | - |
| 1778141038 | 20° C | 53% | 1015 hPa | - | - | - | - |
| 1778140137 | 18.89° C | 56% | 1015 hPa | - | - | - | - |
| 1778139237 | 18.89° C | 56% | 1015 hPa | - | - | - | - |
| 1778138337 | 18.89° C | 56% | 1015 hPa | - | - | - | - |
| 1778137436 | 18.89° C | 56% | 1015 hPa | - | - | - | - |
| 1778136537 | 15° C | 68% | 1015 hPa | - | - | - | - |
* Rain since midnight (hover to see other rain measurements)
** Current wind speed in m/s (hover to see current wind gust speed)